Sargent, NE (68874)

6:30 AM CDT on July 11, 2014 (GMT -0500)
Sargent (KNESARGE4) Elev 2314 ft | 41.64 °N, 99.38 °W | Change Station

Current weather conditions updated 10 minutes ago

Scattered Clouds
Scattered Clouds
68.0 °F
Feels Like 68.0 °F
N
1.0
Wind Variable Wind from ESE
Gusts 6.0 mph

Today is forecast to be Warmer than yesterday. Showers and thunderstorms tonight.

Today
High -- | Low -- °F
--% Chance of Precip.
Yesterday
High -- | Low -- °F
Precip. -- in
6:13 AM 9:12 PM
Waxing Gibbous, 99% visible
Pressure 29.85 in
Visibility 5.0 miles
Clouds Scattered Clouds 300 ft
Scattered Clouds 10000 ft
Dew Point 67 °F
Humidity 97%
Rainfall 0.97 in
Snow Depth Not available.
UV 0 out of 12
Pollen 4.00 out of 12
Air Quality Not available.
Flu Activity Sporadic
METAR KBBW 111053Z AUTO 18008KT 5SM BR SCT003 SCT100 21/21 A2992 RMK AO2 RAE32 SLP107 P0002 T02110206

More Conditions Fewer Conditions

Pressure 29.85 in
Visibility 5.0 miles
Clouds Scattered Clouds 300 ft
Scattered Clouds 10000 ft
Dew Point 67 °F
Humidity 97%
Rainfall 0.97 in
Snow Depth Not available.
UV 0 out of 12
Pollen 4.00 out of 12
Air Quality Not available.
Flu Activity Sporadic
METAR KBBW 111053Z AUTO 18008KT 5SM BR SCT003 SCT100 21/21 A2992 RMK AO2 RAE32 SLP107 P0002 T02110206

More Conditions Fewer Conditions

10-Day Weather Forecast

Almanac

Astronomy

Jul. 11, 2014 Rise Set
Actual Time 6:13 AM CDT 9:12 PM CDT
Civil Twilight 5:39 AM CDT 9:45 PM CDT
Nautical Twilight 4:57 AM CDT 10:27 PM CDT
Astronomical Twilight 4:07 AM CDT 11:17 PM CDT
Moon 8:23 PM CDT 5:28 AM CDT
Length of Visible Light 16h 05m
Length of Day
14h 59m
Tomorrow will be 1m 15s shorter.
Waxing Gibbous, 99% of the Moon is Illuminated
Today
Waxing Gibbous
Jul 12
Full
Jul 18
Last Quarter
Jul 26
New
Aug 3
First Quarter

Today's Extremes

State Highs State Lows

Community

WunderPhotos

Upload Photos

1,732,425 photos uploaded!

WunderBlogs® & News

Nearby

Snow Depth

Station Depth Elevation
No new snow has been reported.

Earthquake Activity

City Distance Mag. Time & Date
No recent earthquake activity has been reported nearby.
Minimum magnitude displayed is 2.5.

Coastal Water Temperatures

Place Temperature
No Stations Reporting

Nearby Weather Stations

Station Location Temp. Dew Point Humidity Wind Precip. Elev Updated Type
Sargent, Sargent, NE 68.0 °F 67 °F 97% ESE  at  1.0 mph 0.00 in / hr 2314 ft 6:20 AM CDT Normal
South of Town, Broken Bow, NE 69.1 °F 68 °F 95% South  at  3.0 mph 0.00 in / hr 2523 ft 6:28 AM CDT Normal
Ansley, NE 68.7 °F 68 °F 96% SSE  at  1.0 mph 0.00 in / hr 2320 ft 6:30 AM CDT Normal

Show More Stations Show Fewer Stations